sensor_id;sensor_type;location;lat;lon;timestamp;pressure;altitude;pressure_sealevel;temperature;humidity
4981;BME280;2507;50.392;7.482;2023-02-26T00:00:25;100745.13;;;1.69;59.20
4981;BME280;2507;50.392;7.482;2023-02-26T00:02:50;100709.00;;;1.66;59.52
4981;BME280;2507;50.392;7.482;2023-02-26T00:05:15;100708.69;;;1.50;60.05
4981;BME280;2507;50.392;7.482;2023-02-26T00:07:41;100725.28;;;1.43;60.18
4981;BME280;2507;50.392;7.482;2023-02-26T00:10:10;100711.63;;;1.38;60.58
4981;BME280;2507;50.392;7.482;2023-02-26T00:12:36;100728.00;;;1.39;61.32
4981;BME280;2507;50.392;7.482;2023-02-26T00:15:02;100718.47;;;1.41;61.35
4981;BME280;2507;50.392;7.482;2023-02-26T00:17:55;100723.03;;;1.33;61.18
4981;BME280;2507;50.392;7.482;2023-02-26T00:20:24;100731.84;;;1.26;61.80
4981;BME280;2507;50.392;7.482;2023-02-26T00:22:50;100731.09;;;1.24;62.22
4981;BME280;2507;50.392;7.482;2023-02-26T00:25:16;100733.69;;;1.22;61.68
4981;BME280;2507;50.392;7.482;2023-02-26T00:27:41;100728.41;;;1.27;62.03
4981;BME280;2507;50.392;7.482;2023-02-26T00:30:08;100728.16;;;1.34;61.75
4981;BME280;2507;50.392;7.482;2023-02-26T00:32:34;100731.53;;;1.36;61.71
4981;BME280;2507;50.392;7.482;2023-02-26T00:35:00;100731.84;;;1.26;62.18
4981;BME280;2507;50.392;7.482;2023-02-26T00:37:31;100732.47;;;1.34;61.76
4981;BME280;2507;50.392;7.482;2023-02-26T00:40:21;100741.13;;;1.33;62.09
4981;BME280;2507;50.392;7.482;2023-02-26T00:42:51;100740.19;;;1.35;61.69
4981;BME280;2507;50.392;7.482;2023-02-26T00:45:17;100742.91;;;1.31;61.59
4981;BME280;2507;50.392;7.482;2023-02-26T00:50:22;100752.06;;;1.41;62.01
4981;BME280;2507;50.392;7.482;2023-02-26T00:53:02;100754.06;;;1.31;61.98
4981;BME280;2507;50.392;7.482;2023-02-26T00:55:28;100748.91;;;1.31;62.08
4981;BME280;2507;50.392;7.482;2023-02-26T00:57:53;100749.47;;;1.41;61.87
4981;BME280;2507;50.392;7.482;2023-02-26T01:00:19;100742.41;;;1.46;61.74
4981;BME280;2507;50.392;7.482;2023-02-26T01:02:45;100741.59;;;1.45;61.82
4981;BME280;2507;50.392;7.482;2023-02-26T01:05:11;100743.28;;;1.46;61.63
4981;BME280;2507;50.392;7.482;2023-02-26T01:10:44;100738.22;;;1.43;62.14
4981;BME280;2507;50.392;7.482;2023-02-26T01:13:10;100771.06;;;1.40;62.28
4981;BME280;2507;50.392;7.482;2023-02-26T01:15:36;100736.38;;;1.47;62.38
4981;BME280;2507;50.392;7.482;2023-02-26T01:18:11;100749.84;;;1.56;62.30
4981;BME280;2507;50.392;7.482;2023-02-26T01:20:43;100744.00;;;1.50;62.18
4981;BME280;2507;50.392;7.482;2023-02-26T01:23:24;100747.59;;;1.46;62.18
4981;BME280;2507;50.392;7.482;2023-02-26T01:25:58;100754.81;;;1.36;63.05
4981;BME280;2507;50.392;7.482;2023-02-26T01:28:25;100747.75;;;1.41;62.76
4981;BME280;2507;50.392;7.482;2023-02-26T01:30:57;100787.66;;;1.33;63.44
4981;BME280;2507;50.392;7.482;2023-02-26T01:33:29;100759.25;;;1.31;63.39
4981;BME280;2507;50.392;7.482;2023-02-26T01:36:02;100751.41;;;1.34;63.11
4981;BME280;2507;50.392;7.482;2023-02-26T01:41:02;100750.09;;;1.49;63.24
4981;BME280;2507;50.392;7.482;2023-02-26T01:48:56;100751.88;;;1.47;63.25
4981;BME280;2507;50.392;7.482;2023-02-26T01:54:17;100756.81;;;1.27;64.02
4981;BME280;2507;50.392;7.482;2023-02-26T01:56:44;100759.63;;;1.19;63.95
4981;BME280;2507;50.392;7.482;2023-02-26T01:59:13;100759.00;;;1.11;64.67
4981;BME280;2507;50.392;7.482;2023-02-26T02:01:40;100765.13;;;1.09;64.89
4981;BME280;2507;50.392;7.482;2023-02-26T02:04:09;100767.59;;;1.12;65.08
4981;BME280;2507;50.392;7.482;2023-02-26T02:06:35;100761.59;;;1.11;64.89
4981;BME280;2507;50.392;7.482;2023-02-26T02:09:03;100764.00;;;1.17;64.61
4981;BME280;2507;50.392;7.482;2023-02-26T02:11:29;100772.16;;;1.33;64.96
4981;BME280;2507;50.392;7.482;2023-02-26T02:19:41;100780.59;;;1.65;63.17
4981;BME280;2507;50.392;7.482;2023-02-26T02:25:34;100798.59;;;1.41;63.45
4981;BME280;2507;50.392;7.482;2023-02-26T02:28:16;100797.88;;;1.36;64.14
4981;BME280;2507;50.392;7.482;2023-02-26T02:30:56;100797.94;;;1.34;64.13
4981;BME280;2507;50.392;7.482;2023-02-26T02:33:31;100812.09;;;1.21;64.30
4981;BME280;2507;50.392;7.482;2023-02-26T02:36:05;100815.72;;;1.16;65.04
4981;BME280;2507;50.392;7.482;2023-02-26T02:38:41;100806.34;;;1.12;65.29
4981;BME280;2507;50.392;7.482;2023-02-26T02:41:17;100802.22;;;1.06;65.27
4981;BME280;2507;50.392;7.482;2023-02-26T02:43:44;100808.41;;;1.00;65.61
4981;BME280;2507;50.392;7.482;2023-02-26T02:46:14;100804.25;;;0.95;66.30
4981;BME280;2507;50.392;7.482;2023-02-26T02:48:55;100814.63;;;0.93;66.19
4981;BME280;2507;50.392;7.482;2023-02-26T02:51:27;100809.69;;;0.86;66.44
4981;BME280;2507;50.392;7.482;2023-02-26T02:54:05;100815.69;;;0.86;65.89
4981;BME280;2507;50.392;7.482;2023-02-26T02:56:48;100814.69;;;0.92;65.50
4981;BME280;2507;50.392;7.482;2023-02-26T02:59:21;100816.41;;;0.91;65.68
4981;BME280;2507;50.392;7.482;2023-02-26T03:01:51;100821.56;;;0.91;66.04
4981;BME280;2507;50.392;7.482;2023-02-26T03:04:17;100821.47;;;0.96;65.42
4981;BME280;2507;50.392;7.482;2023-02-26T03:06:43;100824.00;;;0.97;65.10
4981;BME280;2507;50.392;7.482;2023-02-26T03:09:11;100823.34;;;0.89;66.16
4981;BME280;2507;50.392;7.482;2023-02-26T03:11:36;100825.06;;;0.90;65.76
4981;BME280;2507;50.392;7.482;2023-02-26T03:14:03;100837.16;;;0.88;66.36
4981;BME280;2507;50.392;7.482;2023-02-26T03:19:35;100828.72;;;0.82;66.25
4981;BME280;2507;50.392;7.482;2023-02-26T03:24:36;100873.16;;;0.94;66.45
4981;BME280;2507;50.392;7.482;2023-02-26T03:30:02;100871.47;;;0.93;66.25
4981;BME280;2507;50.392;7.482;2023-02-26T03:32:43;100843.00;;;0.95;66.04
4981;BME280;2507;50.392;7.482;2023-02-26T03:35:16;100890.44;;;0.92;66.27
4981;BME280;2507;50.392;7.482;2023-02-26T03:37:49;100861.03;;;0.96;65.89
4981;BME280;2507;50.392;7.482;2023-02-26T03:40:21;100864.66;;;0.89;65.88
4981;BME280;2507;50.392;7.482;2023-02-26T03:43:03;100879.34;;;0.87;65.84
4981;BME280;2507;50.392;7.482;2023-02-26T03:45:32;100855.53;;;0.78;66.11
4981;BME280;2507;50.392;7.482;2023-02-26T03:47:59;100868.69;;;0.69;66.60
4981;BME280;2507;50.392;7.482;2023-02-26T03:50:33;100872.34;;;0.60;67.27
4981;BME280;2507;50.392;7.482;2023-02-26T03:53:02;100893.63;;;0.70;66.33
4981;BME280;2507;50.392;7.482;2023-02-26T03:55:35;100888.34;;;0.74;65.72
4981;BME280;2507;50.392;7.482;2023-02-26T03:58:02;100873.56;;;0.79;65.59
4981;BME280;2507;50.392;7.482;2023-02-26T04:00:27;100875.19;;;0.82;65.50
4981;BME280;2507;50.392;7.482;2023-02-26T04:02:59;100875.59;;;0.68;65.86
4981;BME280;2507;50.392;7.482;2023-02-26T04:05:32;100879.28;;;0.58;65.93
4981;BME280;2507;50.392;7.482;2023-02-26T04:07:59;100874.34;;;0.49;66.37
4981;BME280;2507;50.392;7.482;2023-02-26T04:10:33;100877.84;;;0.48;66.24
4981;BME280;2507;50.392;7.482;2023-02-26T04:13:01;100879.72;;;0.42;66.17
4981;BME280;2507;50.392;7.482;2023-02-26T04:15:27;100888.53;;;0.33;66.37
4981;BME280;2507;50.392;7.482;2023-02-26T04:17:53;100891.06;;;0.35;66.39
4981;BME280;2507;50.392;7.482;2023-02-26T04:20:18;100889.06;;;0.47;65.81
4981;BME280;2507;50.392;7.482;2023-02-26T04:22:44;100891.72;;;0.43;66.02
4981;BME280;2507;50.392;7.482;2023-02-26T04:25:09;100897.47;;;0.54;65.58
4981;BME280;2507;50.392;7.482;2023-02-26T04:27:34;100904.63;;;0.43;65.95
4981;BME280;2507;50.392;7.482;2023-02-26T04:29:59;100902.00;;;0.44;65.75
4981;BME280;2507;50.392;7.482;2023-02-26T04:32:25;100913.28;;;0.40;65.57
4981;BME280;2507;50.392;7.482;2023-02-26T04:34:50;100921.16;;;0.36;65.89
4981;BME280;2507;50.392;7.482;2023-02-26T04:37:15;100985.88;;;0.27;65.45
4981;BME280;2507;50.392;7.482;2023-02-26T04:39:40;100926.50;;;0.28;66.15
4981;BME280;2507;50.392;7.482;2023-02-26T04:42:06;100922.16;;;0.30;65.58
4981;BME280;2507;50.392;7.482;2023-02-26T04:44:31;100928.72;;;0.43;65.39
4981;BME280;2507;50.392;7.482;2023-02-26T04:46:57;100944.25;;;0.42;65.38
4981;BME280;2507;50.392;7.482;2023-02-26T04:49:22;100938.16;;;0.44;65.30
4981;BME280;2507;50.392;7.482;2023-02-26T04:51:48;100932.28;;;0.38;65.19
4981;BME280;2507;50.392;7.482;2023-02-26T04:54:14;100944.47;;;0.31;64.89
4981;BME280;2507;50.392;7.482;2023-02-26T04:56:39;100937.63;;;0.30;65.07
4981;BME280;2507;50.392;7.482;2023-02-26T04:59:05;100938.44;;;0.32;64.95
4981;BME280;2507;50.392;7.482;2023-02-26T05:01:31;100947.00;;;0.34;65.50
4981;BME280;2507;50.392;7.482;2023-02-26T05:03:56;100948.78;;;0.32;64.92
4981;BME280;2507;50.392;7.482;2023-02-26T05:06:21;100947.91;;;0.32;65.24
4981;BME280;2507;50.392;7.482;2023-02-26T05:08:46;100953.19;;;0.27;64.77
4981;BME280;2507;50.392;7.482;2023-02-26T05:11:12;100953.28;;;0.23;64.69
4981;BME280;2507;50.392;7.482;2023-02-26T05:13:37;100959.94;;;0.33;65.11
4981;BME280;2507;50.392;7.482;2023-02-26T05:16:04;100965.31;;;0.24;65.01
4981;BME280;2507;50.392;7.482;2023-02-26T05:18:29;100966.28;;;0.20;65.37
4981;BME280;2507;50.392;7.482;2023-02-26T05:20:55;100972.47;;;0.11;65.61
4981;BME280;2507;50.392;7.482;2023-02-26T05:23:21;100970.09;;;0.02;65.50
4981;BME280;2507;50.392;7.482;2023-02-26T05:25:46;100975.28;;;0.00;65.58
4981;BME280;2507;50.392;7.482;2023-02-26T05:28:12;100978.72;;;0.01;65.94
4981;BME280;2507;50.392;7.482;2023-02-26T05:30:38;100984.00;;;-0.05;66.06
4981;BME280;2507;50.392;7.482;2023-02-26T05:33:03;100985.50;;;0.05;65.92
4981;BME280;2507;50.392;7.482;2023-02-26T05:35:28;100988.88;;;0.09;65.61
4981;BME280;2507;50.392;7.482;2023-02-26T05:37:54;100978.66;;;0.04;65.70
4981;BME280;2507;50.392;7.482;2023-02-26T05:40:19;100990.78;;;-0.01;65.81
4981;BME280;2507;50.392;7.482;2023-02-26T05:42:44;100993.50;;;-0.06;65.94
4981;BME280;2507;50.392;7.482;2023-02-26T05:45:10;100986.78;;;-0.14;65.95
4981;BME280;2507;50.392;7.482;2023-02-26T05:47:36;100992.88;;;-0.18;66.11
4981;BME280;2507;50.392;7.482;2023-02-26T05:50:03;100991.31;;;-0.25;66.56
4981;BME280;2507;50.392;7.482;2023-02-26T05:52:28;100994.00;;;-0.30;66.63
4981;BME280;2507;50.392;7.482;2023-02-26T05:54:53;100989.75;;;-0.32;66.43
4981;BME280;2507;50.392;7.482;2023-02-26T05:57:20;100999.19;;;-0.31;66.86
4981;BME280;2507;50.392;7.482;2023-02-26T05:59:45;100993.16;;;-0.32;66.89
4981;BME280;2507;50.392;7.482;2023-02-26T06:02:10;101000.88;;;-0.30;66.79
4981;BME280;2507;50.392;7.482;2023-02-26T06:04:35;100995.81;;;-0.36;66.58
4981;BME280;2507;50.392;7.482;2023-02-26T06:07:01;101006.19;;;-0.38;66.99
4981;BME280;2507;50.392;7.482;2023-02-26T06:09:26;101011.28;;;-0.35;67.13
4981;BME280;2507;50.392;7.482;2023-02-26T06:11:52;101013.69;;;-0.27;66.55
4981;BME280;2507;50.392;7.482;2023-02-26T06:14:17;101018.06;;;-0.29;66.72
4981;BME280;2507;50.392;7.482;2023-02-26T06:16:42;101023.22;;;-0.31;66.36
4981;BME280;2507;50.392;7.482;2023-02-26T06:19:07;101031.69;;;-0.24;66.21
4981;BME280;2507;50.392;7.482;2023-02-26T06:21:33;101043.47;;;-0.11;65.97
4981;BME280;2507;50.392;7.482;2023-02-26T06:23:58;101034.00;;;-0.12;65.28
4981;BME280;2507;50.392;7.482;2023-02-26T06:26:23;101046.19;;;-0.19;66.23
4981;BME280;2507;50.392;7.482;2023-02-26T06:28:48;101056.34;;;-0.11;65.74
4981;BME280;2507;50.392;7.482;2023-02-26T06:31:14;101052.88;;;-0.10;65.92
4981;BME280;2507;50.392;7.482;2023-02-26T06:33:39;101058.81;;;-0.07;66.16
4981;BME280;2507;50.392;7.482;2023-02-26T06:36:04;101049.25;;;0.00;66.48
4981;BME280;2507;50.392;7.482;2023-02-26T06:38:30;101059.53;;;0.02;66.36
4981;BME280;2507;50.392;7.482;2023-02-26T06:40:55;101070.47;;;0.11;66.44
4981;BME280;2507;50.392;7.482;2023-02-26T06:43:20;101081.69;;;0.10;66.09
4981;BME280;2507;50.392;7.482;2023-02-26T06:45:46;101080.59;;;0.22;65.88
4981;BME280;2507;50.392;7.482;2023-02-26T06:48:12;101083.59;;;0.42;65.51
4981;BME280;2507;50.392;7.482;2023-02-26T06:50:37;101091.31;;;0.43;65.21
4981;BME280;2507;50.392;7.482;2023-02-26T06:53:03;101098.31;;;0.37;65.78
4981;BME280;2507;50.392;7.482;2023-02-26T06:55:28;101103.44;;;0.38;65.58
4981;BME280;2507;50.392;7.482;2023-02-26T06:57:55;101099.00;;;0.45;65.29
4981;BME280;2507;50.392;7.482;2023-02-26T07:00:22;101106.63;;;0.49;65.13
4981;BME280;2507;50.392;7.482;2023-02-26T07:02:48;101114.38;;;0.51;65.16
4981;BME280;2507;50.392;7.482;2023-02-26T07:05:14;101115.00;;;0.60;64.98
4981;BME280;2507;50.392;7.482;2023-02-26T07:07:39;101117.56;;;0.62;65.24
4981;BME280;2507;50.392;7.482;2023-02-26T07:10:05;101121.72;;;0.69;64.92
4981;BME280;2507;50.392;7.482;2023-02-26T07:12:31;101133.44;;;0.83;64.85
4981;BME280;2507;50.392;7.482;2023-02-26T07:14:56;101133.19;;;0.94;64.43
4981;BME280;2507;50.392;7.482;2023-02-26T07:17:21;101139.63;;;1.12;64.41
4981;BME280;2507;50.392;7.482;2023-02-26T07:19:51;101145.31;;;1.27;64.06
4981;BME280;2507;50.392;7.482;2023-02-26T07:22:18;101156.94;;;1.45;63.79
4981;BME280;2507;50.392;7.482;2023-02-26T07:24:44;101152.81;;;1.70;62.83
4981;BME280;2507;50.392;7.482;2023-02-26T07:27:09;101161.69;;;1.93;61.62
4981;BME280;2507;50.392;7.482;2023-02-26T07:29:35;101155.66;;;2.25;60.98
4981;BME280;2507;50.392;7.482;2023-02-26T07:32:01;101149.63;;;2.54;59.99
4981;BME280;2507;50.392;7.482;2023-02-26T07:34:26;101159.97;;;3.10;58.27
4981;BME280;2507;50.392;7.482;2023-02-26T07:36:51;101167.13;;;3.56;56.37
4981;BME280;2507;50.392;7.482;2023-02-26T07:39:17;101179.81;;;3.90;55.35
4981;BME280;2507;50.392;7.482;2023-02-26T07:41:42;101176.03;;;3.98;55.29
4981;BME280;2507;50.392;7.482;2023-02-26T07:44:07;101183.81;;;3.98;54.54
4981;BME280;2507;50.392;7.482;2023-02-26T07:46:32;101192.84;;;3.88;54.70
4981;BME280;2507;50.392;7.482;2023-02-26T07:48:58;101198.56;;;3.98;55.08
4981;BME280;2507;50.392;7.482;2023-02-26T07:51:23;101203.97;;;4.16;54.96
4981;BME280;2507;50.392;7.482;2023-02-26T07:53:48;101206.94;;;3.81;54.99
4981;BME280;2507;50.392;7.482;2023-02-26T07:56:14;101223.00;;;3.66;56.49
4981;BME280;2507;50.392;7.482;2023-02-26T07:58:39;101214.25;;;3.43;56.11
4981;BME280;2507;50.392;7.482;2023-02-26T08:01:04;101199.47;;;3.19;56.43
4981;BME280;2507;50.392;7.482;2023-02-26T08:03:31;101195.53;;;3.07;56.89
4981;BME280;2507;50.392;7.482;2023-02-26T08:05:56;101201.44;;;3.10;57.92
4981;BME280;2507;50.392;7.482;2023-02-26T08:08:24;101209.34;;;3.06;58.57
4981;BME280;2507;50.392;7.482;2023-02-26T08:10:49;101217.28;;;3.01;58.27
4981;BME280;2507;50.392;7.482;2023-02-26T08:13:15;101208.16;;;2.88;59.22
4981;BME280;2507;50.392;7.482;2023-02-26T08:15:40;101217.91;;;2.80;58.40
4981;BME280;2507;50.392;7.482;2023-02-26T08:18:07;101207.91;;;2.68;59.77
4981;BME280;2507;50.392;7.482;2023-02-26T08:20:33;101216.91;;;2.55;58.81
4981;BME280;2507;50.392;7.482;2023-02-26T08:22:58;101208.44;;;2.50;59.23
4981;BME280;2507;50.392;7.482;2023-02-26T08:25:23;101217.81;;;2.54;59.88
4981;BME280;2507;50.392;7.482;2023-02-26T08:27:49;101216.69;;;2.63;58.28
4981;BME280;2507;50.392;7.482;2023-02-26T08:30:14;101216.00;;;2.58;58.22
4981;BME280;2507;50.392;7.482;2023-02-26T08:32:39;101214.06;;;2.64;59.33
4981;BME280;2507;50.392;7.482;2023-02-26T08:35:06;101212.06;;;2.74;59.29
4981;BME280;2507;50.392;7.482;2023-02-26T08:37:32;101223.13;;;2.79;57.60
4981;BME280;2507;50.392;7.482;2023-02-26T08:39:57;101226.75;;;2.73;58.27
4981;BME280;2507;50.392;7.482;2023-02-26T08:42:22;101223.94;;;2.81;57.38
4981;BME280;2507;50.392;7.482;2023-02-26T08:44:47;101213.13;;;2.96;57.39
4981;BME280;2507;50.392;7.482;2023-02-26T08:47:13;101239.84;;;2.98;55.75
4981;BME280;2507;50.392;7.482;2023-02-26T08:49:38;101223.41;;;3.27;57.36
4981;BME280;2507;50.392;7.482;2023-02-26T08:52:03;101226.53;;;3.38;56.05
4981;BME280;2507;50.392;7.482;2023-02-26T08:54:29;101224.72;;;3.40;56.71
4981;BME280;2507;50.392;7.482;2023-02-26T08:56:54;101243.25;;;3.55;54.89
4981;BME280;2507;50.392;7.482;2023-02-26T08:59:22;101247.34;;;3.62;54.09
4981;BME280;2507;50.392;7.482;2023-02-26T09:01:47;101247.25;;;3.65;52.97
4981;BME280;2507;50.392;7.482;2023-02-26T09:04:12;101250.03;;;3.59;53.34
4981;BME280;2507;50.392;7.482;2023-02-26T09:06:38;101266.66;;;3.54;55.78
4981;BME280;2507;50.392;7.482;2023-02-26T09:09:03;101258.41;;;3.67;54.04
4981;BME280;2507;50.392;7.482;2023-02-26T09:11:28;101287.78;;;4.20;52.03
4981;BME280;2507;50.392;7.482;2023-02-26T09:13:55;101268.41;;;4.30;51.82
4981;BME280;2507;50.392;7.482;2023-02-26T09:16:20;101263.81;;;4.38;51.10
4981;BME280;2507;50.392;7.482;2023-02-26T09:18:45;101270.91;;;4.58;51.34
4981;BME280;2507;50.392;7.482;2023-02-26T09:21:11;101264.53;;;4.66;50.99
4981;BME280;2507;50.392;7.482;2023-02-26T09:23:36;101270.53;;;4.68;51.17
4981;BME280;2507;50.392;7.482;2023-02-26T09:26:01;101268.19;;;4.61;50.95
4981;BME280;2507;50.392;7.482;2023-02-26T09:28:27;101276.94;;;4.58;50.81
4981;BME280;2507;50.392;7.482;2023-02-26T09:30:53;101279.66;;;4.55;50.64
4981;BME280;2507;50.392;7.482;2023-02-26T09:33:20;101273.31;;;4.62;51.27
4981;BME280;2507;50.392;7.482;2023-02-26T09:35:51;101282.84;;;4.63;50.40
4981;BME280;2507;50.392;7.482;2023-02-26T09:38:18;101336.81;;;4.55;48.74
4981;BME280;2507;50.392;7.482;2023-02-26T09:40:47;101279.22;;;4.43;48.57
4981;BME280;2507;50.392;7.482;2023-02-26T09:45:53;101294.50;;;4.27;50.89
4981;BME280;2507;50.392;7.482;2023-02-26T09:48:21;101293.22;;;4.39;49.39
4981;BME280;2507;50.392;7.482;2023-02-26T09:50:52;101292.66;;;4.31;49.21
4981;BME280;2507;50.392;7.482;2023-02-26T09:53:23;101321.97;;;4.08;50.04
4981;BME280;2507;50.392;7.482;2023-02-26T09:55:52;101307.28;;;3.81;47.94
4981;BME280;2507;50.392;7.482;2023-02-26T09:58:29;101310.00;;;3.78;47.51
4981;BME280;2507;50.392;7.482;2023-02-26T10:01:22;101308.94;;;4.09;49.38
4981;BME280;2507;50.392;7.482;2023-02-26T10:04:10;101312.72;;;4.26;46.34
4981;BME280;2507;50.392;7.482;2023-02-26T10:06:55;101315.19;;;4.30;48.00
4981;BME280;2507;50.392;7.482;2023-02-26T10:12:14;101332.47;;;4.56;45.63
4981;BME280;2507;50.392;7.482;2023-02-26T10:20:38;101321.66;;;4.43;47.62
4981;BME280;2507;50.392;7.482;2023-02-26T10:23:18;101325.41;;;4.59;47.95
4981;BME280;2507;50.392;7.482;2023-02-26T10:25:53;101331.31;;;4.64;48.26
4981;BME280;2507;50.392;7.482;2023-02-26T10:28:36;101335.75;;;4.61;46.51
4981;BME280;2507;50.392;7.482;2023-02-26T10:36:18;101330.69;;;5.29;46.15
4981;BME280;2507;50.392;7.482;2023-02-26T10:38:48;101335.09;;;5.03;44.55
4981;BME280;2507;50.392;7.482;2023-02-26T10:41:19;101338.47;;;5.05;46.72
4981;BME280;2507;50.392;7.482;2023-02-26T10:43:51;101337.59;;;5.06;44.81
4981;BME280;2507;50.392;7.482;2023-02-26T10:49:33;101349.59;;;4.86;45.93
4981;BME280;2507;50.392;7.482;2023-02-26T10:52:10;101344.66;;;4.78;44.30
4981;BME280;2507;50.392;7.482;2023-02-26T10:54:44;101352.03;;;4.90;46.37
4981;BME280;2507;50.392;7.482;2023-02-26T10:57:20;101349.31;;;4.93;44.50
4981;BME280;2507;50.392;7.482;2023-02-26T10:59:47;101347.31;;;5.01;44.40
4981;BME280;2507;50.392;7.482;2023-02-26T11:02:45;101347.53;;;4.95;44.21
4981;BME280;2507;50.392;7.482;2023-02-26T11:05:19;101344.97;;;4.69;43.32
4981;BME280;2507;50.392;7.482;2023-02-26T11:07:47;101365.16;;;4.63;43.20
4981;BME280;2507;50.392;7.482;2023-02-26T11:10:24;101341.50;;;4.70;42.29
4981;BME280;2507;50.392;7.482;2023-02-26T11:12:51;101339.75;;;4.71;42.16
4981;BME280;2507;50.392;7.482;2023-02-26T11:15:21;101349.09;;;4.76;44.63
4981;BME280;2507;50.392;7.482;2023-02-26T11:17:48;101342.38;;;4.94;43.31
4981;BME280;2507;50.392;7.482;2023-02-26T11:20:29;101346.31;;;5.04;42.83
4981;BME280;2507;50.392;7.482;2023-02-26T11:22:57;101348.97;;;5.27;41.12
4981;BME280;2507;50.392;7.482;2023-02-26T11:25:27;101381.59;;;5.12;40.29
4981;BME280;2507;50.392;7.482;2023-02-26T11:28:06;101344.13;;;4.93;41.52
4981;BME280;2507;50.392;7.482;2023-02-26T11:30:36;101340.38;;;5.00;40.56
4981;BME280;2507;50.392;7.482;2023-02-26T11:33:21;101345.50;;;5.03;43.15
4981;BME280;2507;50.392;7.482;2023-02-26T11:35:47;101330.50;;;5.33;42.18
4981;BME280;2507;50.392;7.482;2023-02-26T11:38:24;101330.72;;;5.72;40.50
4981;BME280;2507;50.392;7.482;2023-02-26T11:40:55;101339.38;;;5.28;41.43
4981;BME280;2507;50.392;7.482;2023-02-26T11:43:23;101338.03;;;5.17;42.55
4981;BME280;2507;50.392;7.482;2023-02-26T11:45:59;101346.47;;;5.47;42.46
4981;BME280;2507;50.392;7.482;2023-02-26T11:48:32;101339.41;;;5.49;40.87
4981;BME280;2507;50.392;7.482;2023-02-26T11:51:03;101336.78;;;5.51;40.53
4981;BME280;2507;50.392;7.482;2023-02-26T11:53:40;101343.88;;;5.46;41.96
4981;BME280;2507;50.392;7.482;2023-02-26T11:56:30;101359.56;;;4.98;42.23
4981;BME280;2507;50.392;7.482;2023-02-26T11:59:05;101350.78;;;4.77;42.59
4981;BME280;2507;50.392;7.482;2023-02-26T12:01:34;101364.38;;;4.85;44.29
4981;BME280;2507;50.392;7.482;2023-02-26T12:04:01;101396.88;;;4.72;43.33
4981;BME280;2507;50.392;7.482;2023-02-26T12:06:26;101356.91;;;4.75;45.73
4981;BME280;2507;50.392;7.482;2023-02-26T12:08:52;101356.09;;;4.74;43.70
4981;BME280;2507;50.392;7.482;2023-02-26T12:14:10;101356.91;;;4.99;43.41
4981;BME280;2507;50.392;7.482;2023-02-26T12:25:36;101352.38;;;5.28;40.85
4981;BME280;2507;50.392;7.482;2023-02-26T12:37:26;101400.34;;;5.44;42.20
4981;BME280;2507;50.392;7.482;2023-02-26T12:40:04;101368.13;;;5.25;42.37
4981;BME280;2507;50.392;7.482;2023-02-26T12:45:29;101374.09;;;5.03;43.27
4981;BME280;2507;50.392;7.482;2023-02-26T13:02:06;101376.72;;;5.03;42.65
4981;BME280;2507;50.392;7.482;2023-02-26T13:10:13;101382.81;;;5.26;43.30
4981;BME280;2507;50.392;7.482;2023-02-26T13:21:34;101382.41;;;5.13;42.92
4981;BME280;2507;50.392;7.482;2023-02-26T13:24:21;101383.38;;;5.10;41.50
4981;BME280;2507;50.392;7.482;2023-02-26T13:26:49;101387.78;;;5.08;43.52
4981;BME280;2507;50.392;7.482;2023-02-26T13:29:23;101401.75;;;5.06;42.00
4981;BME280;2507;50.392;7.482;2023-02-26T13:31:54;101384.19;;;5.12;43.83
4981;BME280;2507;50.392;7.482;2023-02-26T13:34:43;101382.00;;;5.00;41.77
4981;BME280;2507;50.392;7.482;2023-02-26T13:37:34;101392.53;;;5.20;43.28
4981;BME280;2507;50.392;7.482;2023-02-26T13:40:22;101385.31;;;5.29;42.42
4981;BME280;2507;50.392;7.482;2023-02-26T13:46:04;101388.66;;;5.32;42.04
4981;BME280;2507;50.392;7.482;2023-02-26T13:51:38;101390.94;;;5.16;42.81
4981;BME280;2507;50.392;7.482;2023-02-26T13:54:08;101390.63;;;5.26;41.82
4981;BME280;2507;50.392;7.482;2023-02-26T13:57:33;101393.22;;;5.26;41.78
4981;BME280;2507;50.392;7.482;2023-02-26T14:03:09;101393.94;;;5.98;42.23
4981;BME280;2507;50.392;7.482;2023-02-26T14:13:17;101375.34;;;6.49;38.53
4981;BME280;2507;50.392;7.482;2023-02-26T14:26:48;101401.03;;;6.38;39.88
4981;BME280;2507;50.392;7.482;2023-02-26T14:29:19;101395.56;;;6.22;39.48
4981;BME280;2507;50.392;7.482;2023-02-26T14:32:04;101406.13;;;5.98;39.09
4981;BME280;2507;50.392;7.482;2023-02-26T14:34:43;101401.09;;;5.70;39.33
4981;BME280;2507;50.392;7.482;2023-02-26T14:37:14;101398.28;;;5.75;40.87
4981;BME280;2507;50.392;7.482;2023-02-26T14:39:48;101406.81;;;5.57;40.79
4981;BME280;2507;50.392;7.482;2023-02-26T14:42:21;101401.00;;;5.50;39.88
4981;BME280;2507;50.392;7.482;2023-02-26T14:44:50;101415.69;;;5.51;39.49
4981;BME280;2507;50.392;7.482;2023-02-26T14:47:18;101406.69;;;5.37;39.66
4981;BME280;2507;50.392;7.482;2023-02-26T14:49:45;101411.88;;;5.38;40.50
4981;BME280;2507;50.392;7.482;2023-02-26T14:55:21;101406.00;;;5.55;39.69
4981;BME280;2507;50.392;7.482;2023-02-26T14:58:29;101401.38;;;5.86;38.87
4981;BME280;2507;50.392;7.482;2023-02-26T15:01:37;101397.66;;;6.35;37.29
4981;BME280;2507;50.392;7.482;2023-02-26T15:04:27;101396.06;;;6.10;39.40
4981;BME280;2507;50.392;7.482;2023-02-26T15:07:28;101397.22;;;5.80;39.74
4981;BME280;2507;50.392;7.482;2023-02-26T15:10:10;101407.72;;;5.56;41.08
4981;BME280;2507;50.392;7.482;2023-02-26T15:16:06;101405.22;;;5.30;40.48
4981;BME280;2507;50.392;7.482;2023-02-26T15:21:41;101405.41;;;5.25;40.10
4981;BME280;2507;50.392;7.482;2023-02-26T15:24:11;101408.28;;;5.17;40.18
4981;BME280;2507;50.392;7.482;2023-02-26T15:26:45;101408.81;;;5.26;41.18
4981;BME280;2507;50.392;7.482;2023-02-26T15:29:13;101401.59;;;5.34;41.52
4981;BME280;2507;50.392;7.482;2023-02-26T15:31:45;101408.00;;;5.48;41.56
4981;BME280;2507;50.392;7.482;2023-02-26T15:34:14;101402.47;;;5.57;39.67
4981;BME280;2507;50.392;7.482;2023-02-26T15:36:49;101403.34;;;5.79;38.70
4981;BME280;2507;50.392;7.482;2023-02-26T15:39:15;101404.13;;;5.58;39.09
4981;BME280;2507;50.392;7.482;2023-02-26T15:41:42;101400.88;;;5.53;40.88
4981;BME280;2507;50.392;7.482;2023-02-26T15:44:14;101417.41;;;5.52;41.65
4981;BME280;2507;50.392;7.482;2023-02-26T15:46:43;101408.75;;;5.52;40.81
4981;BME280;2507;50.392;7.482;2023-02-26T15:51:46;101414.50;;;5.37;42.01
4981;BME280;2507;50.392;7.482;2023-02-26T15:54:16;101415.69;;;5.28;43.25
4981;BME280;2507;50.392;7.482;2023-02-26T15:56:43;101409.06;;;5.19;42.07
4981;BME280;2507;50.392;7.482;2023-02-26T15:59:16;101413.16;;;5.02;41.61